createdAt,value
2018-06-15T00:00:25.753Z,6.37
2018-06-15T00:03:00.133Z,5.97
2018-06-15T00:05:29.605Z,6.20
2018-06-15T00:07:58.883Z,5.90
2018-06-15T00:10:28.073Z,10.03
2018-06-15T00:12:57.605Z,8.50
2018-06-15T00:15:26.990Z,6.83
2018-06-15T00:17:56.117Z,7.70
2018-06-15T00:20:25.450Z,4.53
2018-06-15T00:22:54.737Z,5.83
2018-06-15T00:25:23.913Z,9.93
2018-06-15T00:27:53.039Z,13.13
2018-06-15T00:30:22.267Z,4.57
2018-06-15T00:32:51.532Z,5.93
2018-06-15T00:35:20.648Z,10.50
2018-06-15T00:37:49.806Z,10.87
2018-06-15T00:40:19.059Z,5.27
2018-06-15T00:42:48.196Z,6.50
2018-06-15T00:45:17.349Z,7.07
2018-06-15T00:47:46.554Z,22.40
2018-06-15T00:50:15.693Z,14.53
2018-06-15T00:52:44.898Z,9.60
2018-06-15T00:55:14.057Z,9.93
2018-06-15T00:57:48.078Z,13.57
2018-06-15T01:00:17.698Z,8.90
2018-06-15T01:02:46.964Z,11.40
2018-06-15T01:05:16.132Z,11.43
2018-06-15T01:07:45.321Z,18.93
2018-06-15T01:10:14.481Z,12.33
2018-06-15T01:12:43.651Z,11.87
2018-06-15T01:15:12.833Z,13.10
2018-06-15T01:17:42.064Z,12.83
2018-06-15T01:20:11.258Z,12.43
2018-06-15T01:22:40.453Z,12.43
2018-06-15T01:25:09.670Z,16.03
2018-06-15T01:27:38.956Z,11.93
2018-06-15T01:30:08.150Z,13.07
2018-06-15T01:32:37.332Z,11.77
2018-06-15T01:35:06.988Z,13.60
2018-06-15T01:37:36.151Z,13.50
2018-06-15T01:40:05.338Z,14.27
2018-06-15T01:42:34.515Z,12.10
2018-06-15T01:45:03.635Z,22.30
2018-06-15T01:47:32.758Z,12.10
2018-06-15T01:50:01.936Z,13.07
2018-06-15T01:52:31.120Z,12.73
2018-06-15T01:55:00.338Z,14.40
2018-06-15T01:57:29.507Z,13.67
2018-06-15T01:59:58.823Z,12.77
2018-06-15T02:02:28.029Z,12.57
2018-06-15T02:04:57.284Z,14.63
2018-06-15T02:07:26.445Z,12.60
2018-06-15T02:09:55.734Z,13.43
2018-06-15T02:12:24.943Z,12.97
2018-06-15T02:14:54.112Z,15.00
2018-06-15T02:17:23.543Z,11.20
2018-06-15T02:19:52.722Z,19.83
2018-06-15T02:22:22.056Z,13.73
2018-06-15T02:24:51.241Z,13.83
2018-06-15T02:27:20.545Z,13.37
2018-06-15T02:29:49.760Z,12.27
2018-06-15T02:32:19.028Z,13.27
2018-06-15T02:34:48.248Z,24.60
2018-06-15T02:37:17.379Z,15.73
2018-06-15T02:39:46.542Z,13.87
2018-06-15T02:42:15.741Z,15.73
2018-06-15T02:44:44.939Z,16.50
2018-06-15T02:47:14.106Z,15.27
2018-06-15T02:49:43.444Z,16.63
2018-06-15T02:52:12.817Z,22.07
2018-06-15T02:54:42.078Z,20.60
2018-06-15T02:57:11.636Z,18.17
2018-06-15T02:59:40.822Z,14.27
2018-06-15T03:02:10.106Z,14.33
2018-06-15T03:04:39.367Z,25.37
2018-06-15T03:07:08.570Z,16.63
2018-06-15T03:09:37.781Z,15.30
2018-06-15T03:12:07.022Z,15.40
2018-06-15T03:14:36.485Z,17.40
2018-06-15T03:17:05.637Z,17.07
2018-06-15T03:19:34.859Z,17.53
2018-06-15T03:22:04.057Z,17.17
2018-06-15T03:24:33.358Z,18.37
2018-06-15T03:27:02.697Z,18.70
2018-06-15T03:29:31.896Z,18.57
2018-06-15T03:32:01.052Z,22.80
2018-06-15T03:34:30.196Z,19.73
2018-06-15T03:36:59.346Z,17.00
2018-06-15T03:39:28.565Z,22.10
2018-06-15T03:41:57.693Z,16.70
2018-06-15T03:44:27.116Z,17.03
2018-06-15T03:46:56.370Z,18.03
2018-06-15T03:49:32.073Z,16.80
2018-06-15T03:52:01.393Z,21.00
2018-06-15T03:54:30.529Z,20.70
2018-06-15T03:57:00.061Z,20.00
2018-06-15T03:59:29.235Z,16.30
2018-06-15T04:01:58.462Z,18.37
2018-06-15T04:04:27.639Z,28.50
2018-06-15T04:06:56.871Z,20.63
2018-06-15T04:09:26.049Z,20.23
2018-06-15T04:11:55.302Z,17.97
2018-06-15T04:14:24.419Z,16.63
2018-06-15T04:16:53.697Z,27.07
2018-06-15T04:19:22.850Z,28.03
2018-06-15T04:21:51.996Z,17.17
2018-06-15T04:24:21.020Z,20.47
2018-06-15T04:26:50.149Z,17.63
2018-06-15T04:29:19.433Z,14.70
2018-06-15T04:31:48.707Z,18.17
2018-06-15T04:34:17.878Z,16.73
2018-06-15T04:36:46.914Z,14.93
2018-06-15T04:39:16.097Z,13.50
2018-06-15T04:41:45.307Z,14.63
2018-06-15T04:44:14.670Z,16.47
2018-06-15T04:46:43.889Z,12.73
2018-06-15T04:49:13.062Z,14.07
2018-06-15T04:51:42.273Z,13.40
2018-06-15T04:54:11.537Z,16.00
2018-06-15T04:56:40.832Z,13.67
2018-06-15T04:59:09.969Z,18.83
2018-06-15T05:01:39.196Z,15.40
2018-06-15T05:04:08.397Z,14.47
2018-06-15T05:06:37.594Z,19.33
2018-06-15T05:09:09.459Z,15.90
2018-06-15T05:11:38.662Z,16.10
2018-06-15T05:14:07.974Z,13.60
2018-06-15T05:16:37.185Z,23.20
2018-06-15T05:19:06.779Z,24.50
2018-06-15T05:21:36.043Z,16.43
2018-06-15T05:24:05.089Z,21.23
2018-06-15T05:26:34.282Z,15.20
2018-06-15T05:29:03.470Z,15.33
2018-06-15T05:31:32.646Z,17.33
2018-06-15T05:34:01.841Z,13.90
2018-06-15T05:36:31.030Z,35.57
2018-06-15T05:39:00.224Z,16.73
2018-06-15T05:41:29.460Z,19.27
2018-06-15T05:43:58.622Z,12.83
2018-06-15T05:46:27.818Z,13.60
2018-06-15T05:48:57.231Z,14.57
2018-06-15T05:51:26.418Z,21.10
2018-06-15T05:53:55.634Z,23.27
2018-06-15T05:56:24.932Z,16.93
2018-06-15T05:58:54.149Z,15.10
2018-06-15T06:01:23.374Z,16.20
2018-06-15T06:03:52.708Z,12.53
2018-06-15T06:06:22.138Z,14.27
2018-06-15T06:08:51.350Z,12.00
2018-06-15T06:11:20.778Z,12.57
2018-06-15T06:13:50.031Z,19.27
2018-06-15T06:16:19.217Z,11.20
2018-06-15T06:18:48.483Z,13.10
2018-06-15T06:21:17.634Z,12.47
2018-06-15T06:23:46.818Z,15.77
2018-06-15T06:26:16.000Z,20.10
2018-06-15T06:28:45.141Z,18.33
2018-06-15T06:31:15.081Z,15.30
2018-06-15T06:33:44.242Z,19.23
2018-06-15T06:36:13.531Z,29.07
2018-06-15T06:38:42.841Z,11.73
2018-06-15T06:41:12.054Z,13.57
2018-06-15T06:43:41.375Z,18.57
2018-06-15T06:46:10.582Z,21.73
2018-06-15T06:48:39.876Z,12.97
2018-06-15T06:51:09.096Z,21.20
2018-06-15T06:53:38.223Z,21.20
2018-06-15T06:56:07.498Z,12.90
2018-06-15T06:58:36.740Z,11.43
2018-06-15T07:01:05.905Z,10.90
2018-06-15T07:03:35.106Z,22.43
2018-06-15T07:06:04.412Z,18.60
2018-06-15T07:08:33.753Z,12.33
2018-06-15T07:11:02.923Z,13.23
2018-06-15T07:13:32.069Z,11.60
2018-06-15T07:16:01.307Z,17.77
2018-06-15T07:18:30.481Z,11.73
2018-06-15T07:20:59.873Z,10.67
2018-06-15T07:23:29.155Z,31.67
2018-06-15T07:25:58.437Z,18.00
2018-06-15T07:28:27.632Z,11.53
2018-06-15T07:30:56.839Z,11.83
2018-06-15T07:33:26.174Z,16.27
2018-06-15T07:35:55.518Z,19.50
2018-06-15T07:38:24.677Z,19.93
2018-06-15T07:40:54.004Z,18.27
2018-06-15T07:43:23.321Z,19.10
2018-06-15T07:45:52.622Z,16.00
2018-06-15T07:48:21.779Z,23.83
2018-06-15T07:50:51.029Z,23.17
2018-06-15T07:53:20.212Z,12.37
2018-06-15T07:55:49.410Z,16.73
2018-06-15T07:58:18.685Z,9.57
2018-06-15T08:00:47.898Z,15.00
2018-06-15T08:03:17.107Z,13.27
2018-06-15T08:05:46.260Z,15.43
2018-06-15T08:08:15.503Z,8.83
2018-06-15T08:10:44.740Z,8.67
2018-06-15T08:13:14.214Z,16.30
2018-06-15T08:15:43.388Z,9.17
2018-06-15T08:18:12.583Z,10.77
2018-06-15T08:20:41.778Z,9.70
2018-06-15T08:23:10.949Z,12.40
2018-06-15T08:25:43.176Z,13.57
2018-06-15T08:28:12.389Z,10.23
2018-06-15T08:30:41.555Z,9.13
2018-06-15T08:33:10.721Z,9.60
2018-06-15T08:35:39.942Z,7.67
2018-06-15T08:38:09.144Z,7.90
2018-06-15T08:40:38.353Z,9.93
2018-06-15T08:43:07.549Z,7.90
2018-06-15T08:45:37.426Z,17.77
2018-06-15T08:48:06.681Z,10.30
2018-06-15T08:50:36.169Z,7.90
2018-06-15T08:53:05.517Z,11.23
2018-06-15T08:55:34.696Z,10.73
2018-06-15T08:58:03.949Z,6.90
2018-06-15T09:00:33.285Z,9.40
2018-06-15T09:03:02.706Z,10.30
2018-06-15T09:05:31.994Z,8.97
2018-06-15T09:08:01.234Z,15.33
2018-06-15T09:10:30.720Z,10.00
2018-06-15T09:12:59.938Z,11.87
2018-06-15T09:15:28.961Z,11.53
2018-06-15T09:17:58.165Z,14.87
2018-06-15T09:20:27.285Z,7.60
2018-06-15T09:22:57.274Z,7.73
2018-06-15T09:25:26.467Z,7.97
2018-06-15T09:27:55.583Z,7.47
2018-06-15T09:30:24.765Z,16.83
2018-06-15T09:32:53.963Z,8.47
2018-06-15T09:35:23.178Z,14.73
2018-06-15T09:37:52.460Z,7.07
2018-06-15T09:40:21.696Z,7.00
2018-06-15T09:42:50.873Z,13.37
2018-06-15T09:45:20.215Z,7.03
2018-06-15T09:47:49.335Z,12.13
2018-06-15T09:50:18.510Z,6.17
2018-06-15T09:52:47.726Z,7.30
2018-06-15T09:55:16.877Z,15.07
2018-06-15T09:57:46.006Z,6.00
2018-06-15T10:00:23.966Z,7.40
2018-06-15T10:02:53.147Z,11.23
2018-06-15T10:05:22.345Z,6.97
2018-06-15T10:07:51.474Z,7.43
2018-06-15T10:10:20.616Z,5.37
2018-06-15T10:12:49.816Z,6.20
2018-06-15T10:15:18.931Z,3.93
2018-06-15T10:17:48.265Z,5.27
2018-06-15T10:20:17.398Z,5.87
2018-06-15T10:22:46.506Z,6.70
2018-06-15T10:25:15.695Z,15.53
2018-06-15T10:27:44.873Z,6.07
2018-06-15T10:30:14.041Z,6.33
2018-06-15T10:32:43.387Z,5.43
2018-06-15T10:35:12.579Z,7.20
2018-06-15T10:37:41.756Z,5.60
2018-06-15T10:40:10.960Z,10.83
2018-06-15T10:42:40.126Z,8.70
2018-06-15T10:45:09.393Z,5.23
2018-06-15T10:47:38.578Z,19.40
2018-06-15T10:50:07.730Z,6.03
2018-06-15T10:52:36.848Z,9.80
2018-06-15T10:55:06.885Z,3.17
2018-06-15T10:57:36.038Z,4.70
2018-06-15T11:00:05.347Z,13.07
2018-06-15T11:02:34.622Z,2.70
2018-06-15T11:05:03.767Z,2.53
2018-06-15T11:07:32.961Z,4.53
2018-06-15T11:10:02.140Z,7.17
2018-06-15T11:12:31.447Z,3.33
2018-06-15T11:15:00.611Z,2.70
2018-06-15T11:17:29.914Z,5.70
2018-06-15T11:19:59.094Z,4.10
2018-06-15T11:22:28.262Z,3.20
2018-06-15T11:24:57.442Z,3.60
2018-06-15T11:27:26.585Z,6.13
2018-06-15T11:29:55.833Z,3.87
2018-06-15T11:32:25.000Z,5.50
2018-06-15T11:34:54.156Z,9.10
2018-06-15T11:37:23.432Z,6.10
2018-06-15T11:39:52.601Z,10.90
2018-06-15T11:42:21.870Z,3.10
2018-06-15T11:44:51.091Z,2.07
2018-06-15T11:47:20.308Z,3.67
2018-06-15T11:49:49.594Z,2.83
2018-06-15T11:52:18.828Z,8.30
2018-06-15T11:54:48.068Z,11.33
2018-06-15T11:57:17.231Z,3.27
2018-06-15T11:59:46.349Z,6.20
2018-06-15T12:02:15.628Z,4.93
2018-06-15T12:04:44.975Z,14.17
2018-06-15T12:07:14.192Z,12.47
2018-06-15T12:09:43.683Z,5.57
2018-06-15T12:12:12.863Z,6.73
2018-06-15T12:14:42.127Z,5.17
2018-06-15T12:17:11.393Z,3.80
2018-06-15T12:19:40.667Z,4.50
2018-06-15T12:22:09.891Z,4.27
2018-06-15T12:24:39.038Z,7.13
2018-06-15T12:27:08.313Z,15.07
2018-06-15T12:29:37.638Z,6.90
2018-06-15T12:32:07.086Z,6.70
2018-06-15T12:34:36.360Z,6.17
2018-06-15T12:37:05.580Z,6.17
2018-06-15T12:39:35.396Z,5.50
2018-06-15T12:42:05.746Z,5.83
2018-06-15T12:44:35.285Z,4.80
2018-06-15T12:47:04.518Z,5.57
2018-06-15T12:49:33.975Z,4.53
2018-06-15T12:52:03.350Z,6.23
2018-06-15T12:54:32.663Z,4.60
2018-06-15T12:57:02.153Z,9.50
2018-06-15T12:59:31.379Z,4.30
2018-06-15T13:02:01.247Z,7.27
2018-06-15T13:04:31.197Z,6.77
2018-06-15T13:07:00.669Z,7.23
2018-06-15T13:09:29.980Z,4.30
2018-06-15T13:11:59.578Z,3.60
2018-06-15T13:14:29.057Z,3.40
2018-06-15T13:16:58.455Z,13.87
2018-06-15T13:19:27.068Z,3.57
2018-06-15T13:21:55.630Z,5.20
2018-06-15T13:24:24.039Z,2.50
2018-06-15T13:26:52.348Z,2.80
2018-06-15T13:29:20.799Z,4.73
2018-06-15T13:31:49.163Z,5.33
2018-06-15T13:34:17.545Z,2.70
2018-06-15T13:36:46.040Z,3.23
2018-06-15T13:39:14.450Z,4.50
2018-06-15T13:41:42.721Z,4.30
2018-06-15T13:44:10.935Z,6.13
2018-06-15T13:46:39.185Z,4.80
2018-06-15T13:49:07.615Z,4.20
2018-06-15T13:51:35.916Z,3.40
2018-06-15T13:54:04.276Z,5.53
2018-06-15T13:56:32.703Z,4.63
2018-06-15T13:59:01.274Z,3.13
2018-06-15T14:01:29.655Z,3.37
2018-06-15T14:03:58.058Z,4.30
2018-06-15T14:06:26.524Z,5.07
2018-06-15T14:08:54.811Z,6.50
2018-06-15T14:11:23.121Z,4.00
2018-06-15T14:13:51.661Z,11.53
2018-06-15T14:16:19.937Z,4.07
2018-06-15T14:18:48.231Z,4.10
2018-06-15T14:21:16.476Z,5.50
2018-06-15T14:23:44.864Z,3.53
2018-06-15T14:26:13.452Z,2.40
2018-06-15T14:28:41.990Z,2.83
2018-06-15T14:31:10.328Z,3.03
2018-06-15T14:33:38.722Z,3.43
2018-06-15T14:36:07.302Z,3.90
2018-06-15T14:38:35.595Z,3.87
2018-06-15T14:41:03.851Z,3.17
2018-06-15T14:43:32.105Z,6.70
2018-06-15T14:46:00.384Z,4.00
2018-06-15T14:48:28.660Z,3.53
2018-06-15T14:50:56.949Z,2.73
2018-06-15T14:53:31.780Z,3.10
2018-06-15T14:56:00.021Z,3.10
2018-06-15T14:58:28.464Z,2.30
2018-06-15T15:00:56.825Z,3.43
2018-06-15T15:03:25.088Z,4.60
2018-06-15T15:05:53.342Z,5.23
2018-06-15T15:08:21.486Z,11.93
2018-06-15T15:10:49.711Z,3.40
2018-06-15T15:13:18.097Z,3.23
2018-06-15T15:15:46.364Z,3.20
2018-06-15T15:18:14.653Z,4.90
2018-06-15T15:20:43.242Z,6.63
2018-06-15T15:23:11.711Z,3.87
2018-06-15T15:25:40.166Z,5.67
2018-06-15T15:28:08.464Z,6.40
2018-06-15T15:30:36.702Z,3.13
2018-06-15T15:33:05.065Z,4.47
2018-06-15T15:35:33.317Z,8.93
2018-06-15T15:38:01.536Z,3.77
2018-06-15T15:40:29.877Z,3.90
2018-06-15T15:42:58.188Z,5.00
2018-06-15T15:45:26.679Z,4.03
2018-06-15T15:47:55.385Z,3.00
2018-06-15T15:50:23.660Z,3.43
2018-06-15T15:52:51.923Z,3.73
2018-06-15T15:55:20.324Z,4.07
2018-06-15T15:57:48.647Z,4.93
2018-06-15T16:00:16.864Z,6.93
2018-06-15T16:02:45.154Z,6.00
2018-06-15T16:05:14.146Z,3.03
2018-06-15T16:07:42.768Z,8.00
2018-06-15T16:10:11.243Z,2.97
2018-06-15T16:12:41.463Z,3.00
2018-06-15T16:15:10.005Z,2.70
2018-06-15T16:17:38.467Z,14.13
2018-06-15T16:20:07.024Z,4.40
2018-06-15T16:22:38.418Z,3.63
2018-06-15T16:25:06.955Z,4.13
2018-06-15T16:27:35.839Z,5.70
2018-06-15T16:30:04.519Z,3.47
2018-06-15T16:32:33.044Z,8.27
2018-06-15T16:35:01.614Z,3.60
2018-06-15T16:37:30.286Z,3.60
2018-06-15T16:39:58.863Z,5.03
2018-06-15T16:42:27.502Z,3.40
2018-06-15T16:44:55.958Z,3.80
2018-06-15T16:47:24.399Z,4.77
2018-06-15T16:49:52.786Z,2.83
2018-06-15T16:52:21.379Z,8.00
2018-06-15T16:54:49.790Z,3.90
2018-06-15T16:57:18.250Z,5.07
2018-06-15T16:59:46.765Z,3.07
2018-06-15T17:02:15.152Z,7.23
2018-06-15T17:04:43.383Z,12.33
2018-06-15T17:07:11.943Z,4.40
2018-06-15T17:09:40.550Z,3.80
2018-06-15T17:12:09.030Z,3.70
2018-06-15T17:14:37.405Z,4.27
2018-06-15T17:17:05.842Z,12.17
2018-06-15T17:19:34.265Z,4.07
2018-06-15T17:22:02.702Z,3.83
2018-06-15T17:24:31.001Z,4.37
2018-06-15T17:26:59.382Z,4.30
2018-06-15T17:29:27.901Z,6.80
2018-06-15T17:31:56.296Z,3.97
2018-06-15T17:34:24.906Z,3.90
2018-06-15T17:36:53.066Z,4.30
2018-06-15T17:39:21.961Z,4.40
2018-06-15T17:41:50.576Z,6.33
2018-06-15T17:44:19.317Z,4.90
2018-06-15T17:46:47.944Z,4.83
2018-06-15T17:49:16.443Z,5.60
2018-06-15T17:51:44.921Z,13.43
2018-06-15T17:54:13.358Z,4.73
2018-06-15T17:56:41.899Z,4.40
2018-06-15T17:59:10.415Z,14.03
2018-06-15T18:01:38.870Z,6.17
2018-06-15T18:04:07.438Z,12.33
2018-06-15T18:06:35.974Z,4.13
2018-06-15T18:09:07.228Z,4.50
2018-06-15T18:11:35.747Z,4.20
2018-06-15T18:14:04.217Z,4.30
2018-06-15T18:16:32.618Z,10.00
2018-06-15T18:19:01.034Z,10.30
2018-06-15T18:21:29.452Z,6.10
2018-06-15T18:23:57.879Z,4.80
2018-06-15T18:26:26.381Z,12.20
2018-06-15T18:28:54.698Z,4.60
2018-06-15T18:31:23.213Z,5.10
2018-06-15T18:33:51.704Z,5.03
2018-06-15T18:36:20.189Z,4.97
2018-06-15T18:38:48.595Z,8.50
2018-06-15T18:41:17.040Z,8.40
2018-06-15T18:43:45.415Z,6.17
2018-06-15T18:46:13.836Z,6.20
2018-06-15T18:48:42.075Z,4.90
2018-06-15T18:51:10.488Z,5.07
2018-06-15T18:53:39.057Z,5.40
2018-06-15T18:56:07.895Z,9.40
2018-06-15T18:58:36.350Z,5.83
2018-06-15T19:01:04.537Z,5.83
2018-06-15T19:03:32.918Z,5.00
2018-06-15T19:06:01.364Z,6.13
2018-06-15T19:08:29.594Z,4.77
2018-06-15T19:10:58.175Z,7.13
2018-06-15T19:13:26.688Z,6.87
2018-06-15T19:15:55.194Z,4.80
2018-06-15T19:18:23.757Z,9.23
2018-06-15T19:20:52.173Z,6.50
2018-06-15T19:23:20.575Z,4.47
2018-06-15T19:25:49.058Z,14.43
2018-06-15T19:28:17.620Z,5.63
2018-06-15T19:30:46.173Z,5.13
2018-06-15T19:33:14.542Z,5.03
2018-06-15T19:35:42.944Z,5.90
2018-06-15T19:38:11.528Z,4.80
2018-06-15T19:40:39.965Z,5.93
2018-06-15T19:43:08.551Z,4.57
2018-06-15T19:45:37.075Z,6.03
2018-06-15T19:48:05.512Z,5.17
2018-06-15T19:50:33.973Z,6.83
2018-06-15T19:53:02.369Z,5.37
2018-06-15T19:55:30.882Z,5.50
2018-06-15T19:57:59.239Z,6.27
2018-06-15T20:00:27.643Z,10.20
2018-06-15T20:02:55.923Z,5.90
2018-06-15T20:05:24.124Z,13.73
2018-06-15T20:07:52.515Z,5.30
2018-06-15T20:10:20.973Z,6.80
2018-06-15T20:12:49.474Z,6.03
2018-06-15T20:15:17.906Z,6.83
2018-06-15T20:17:46.472Z,6.23
2018-06-15T20:20:14.896Z,5.93
2018-06-15T20:22:43.325Z,5.13
2018-06-15T20:25:11.871Z,4.70
2018-06-15T20:27:40.282Z,15.03
2018-06-15T20:30:09.009Z,12.10
2018-06-15T20:32:37.355Z,6.17
2018-06-15T20:35:05.921Z,13.00
2018-06-15T20:37:34.616Z,11.60
2018-06-15T20:40:03.113Z,6.70
2018-06-15T20:42:31.634Z,6.27
2018-06-15T20:45:00.061Z,6.27
2018-06-15T20:47:28.557Z,5.23
2018-06-15T20:49:56.959Z,5.67
2018-06-15T20:52:25.300Z,6.30
2018-06-15T20:54:53.917Z,7.40
2018-06-15T20:57:22.456Z,5.13
2018-06-15T20:59:51.027Z,13.03
2018-06-15T21:02:19.543Z,9.40
2018-06-15T21:04:48.111Z,9.63
2018-06-15T21:07:16.597Z,7.97
2018-06-15T21:09:45.116Z,13.80
2018-06-15T21:12:13.522Z,11.13
2018-06-15T21:14:41.902Z,6.90
2018-06-15T21:17:10.416Z,7.43
2018-06-15T21:19:45.424Z,7.03
2018-06-15T21:22:13.958Z,7.80
2018-06-15T21:24:42.449Z,9.33
2018-06-15T21:27:10.641Z,8.00
2018-06-15T21:29:39.138Z,8.07
2018-06-15T21:32:07.561Z,7.70
2018-06-15T21:34:35.978Z,8.37
2018-06-15T21:37:04.216Z,11.60
2018-06-15T21:39:32.682Z,8.57
2018-06-15T21:42:01.138Z,10.43
2018-06-15T21:44:29.686Z,8.67
2018-06-15T21:46:58.097Z,8.67
2018-06-15T21:49:26.516Z,6.77
2018-06-15T21:51:55.044Z,7.47
2018-06-15T21:54:23.478Z,14.27
2018-06-15T21:56:51.866Z,9.23
2018-06-15T21:59:20.348Z,7.20
2018-06-15T22:01:48.725Z,8.60
2018-06-15T22:04:17.140Z,8.63
2018-06-15T22:06:45.272Z,7.00
2018-06-15T22:09:13.638Z,9.03
2018-06-15T22:11:42.106Z,7.37
2018-06-15T22:14:10.549Z,7.40
2018-06-15T22:16:44.195Z,6.67
2018-06-15T22:19:12.631Z,6.67
2018-06-15T22:21:40.816Z,16.67
2018-06-15T22:24:09.240Z,5.77
2018-06-15T22:26:37.599Z,6.47
2018-06-15T22:29:05.993Z,15.00
2018-06-15T22:31:34.458Z,12.30
2018-06-15T22:34:02.861Z,6.73
2018-06-15T22:36:31.279Z,6.97
2018-06-15T22:38:59.760Z,7.17
2018-06-15T22:41:28.176Z,7.10
2018-06-15T22:43:56.603Z,6.60
2018-06-15T22:46:24.975Z,7.53
2018-06-15T22:48:53.376Z,6.97
2018-06-15T22:51:21.598Z,10.30
2018-06-15T22:53:50.011Z,6.70
2018-06-15T22:56:18.473Z,7.87
2018-06-15T22:58:46.978Z,6.90
2018-06-15T23:01:15.468Z,7.30
2018-06-15T23:03:43.944Z,6.57
2018-06-15T23:06:14.142Z,8.00
2018-06-15T23:08:42.538Z,8.00
2018-06-15T23:11:11.091Z,8.07
2018-06-15T23:13:39.535Z,8.33
2018-06-15T23:16:07.911Z,7.77
2018-06-15T23:18:36.080Z,8.00
2018-06-15T23:21:04.238Z,8.60
2018-06-15T23:23:32.671Z,13.93
2018-06-15T23:26:01.051Z,7.67
2018-06-15T23:28:29.436Z,8.30
2018-06-15T23:30:57.843Z,10.30
2018-06-15T23:33:26.277Z,10.33
2018-06-15T23:35:54.893Z,8.47
2018-06-15T23:38:23.308Z,7.83
2018-06-15T23:40:51.714Z,8.10
2018-06-15T23:43:20.195Z,8.77
2018-06-15T23:45:48.699Z,9.47
2018-06-15T23:48:17.173Z,9.37
2018-06-15T23:50:45.580Z,16.57
2018-06-15T23:53:13.965Z,8.50
2018-06-15T23:55:42.430Z,9.63
2018-06-15T23:58:10.981Z,9.23
